createdAt,value
2018-09-08T00:01:43.316Z,100.00
2018-09-08T00:04:13.655Z,100.00
2018-09-08T00:06:44.427Z,100.00
2018-09-08T00:09:14.861Z,100.00
2018-09-08T00:11:45.445Z,100.00
2018-09-08T00:14:16.024Z,100.00
2018-09-08T00:16:51.561Z,100.00
2018-09-08T00:19:26.934Z,100.00
2018-09-08T00:22:02.489Z,100.00
2018-09-08T00:24:38.155Z,100.00
2018-09-08T00:27:07.625Z,100.00
2018-09-08T00:29:50.559Z,100.00
2018-09-08T00:32:22.617Z,100.00
2018-09-08T00:34:53.073Z,100.00
2018-09-08T00:37:23.487Z,100.00
2018-09-08T00:39:53.900Z,100.00
2018-09-08T00:42:24.418Z,100.00
2018-09-08T00:44:54.861Z,100.00
2018-09-08T00:47:25.549Z,100.00
2018-09-08T00:49:56.018Z,100.00
2018-09-08T00:52:26.548Z,100.00
2018-09-08T00:54:56.950Z,100.00
2018-09-08T00:57:27.409Z,100.00
2018-09-08T00:59:57.860Z,100.00
2018-09-08T01:02:28.218Z,100.00
2018-09-08T01:04:58.763Z,100.00
2018-09-08T01:07:30.131Z,100.00
2018-09-08T01:10:02.829Z,100.00
2018-09-08T01:12:33.958Z,100.00
2018-09-08T01:15:04.669Z,100.00
2018-09-08T01:17:35.105Z,100.00
2018-09-08T01:20:05.832Z,100.00
2018-09-08T01:22:36.627Z,100.00
2018-09-08T01:25:07.260Z,100.00
2018-09-08T01:27:37.651Z,100.00
2018-09-08T01:30:08.277Z,100.00
2018-09-08T01:32:38.905Z,100.00
2018-09-08T01:35:09.409Z,100.00
2018-09-08T01:37:39.912Z,100.00
2018-09-08T01:40:11.014Z,100.00
2018-09-08T01:42:41.517Z,100.00
2018-09-08T01:45:11.984Z,100.00
2018-09-08T01:47:43.237Z,100.00
2018-09-08T01:50:13.812Z,100.00
2018-09-08T01:52:44.324Z,100.00
2018-09-08T01:55:14.612Z,100.00
2018-09-08T01:57:44.955Z,100.00
2018-09-08T02:00:15.386Z,100.00
2018-09-08T02:02:45.959Z,100.00
2018-09-08T02:05:16.496Z,100.00
2018-09-08T02:07:46.932Z,100.00
2018-09-08T02:10:17.287Z,100.00
2018-09-08T02:12:47.815Z,100.00
2018-09-08T02:15:21.969Z,100.00
2018-09-08T02:17:52.424Z,100.00
2018-09-08T02:20:23.033Z,100.00
2018-09-08T02:22:53.605Z,100.00
2018-09-08T02:25:24.220Z,100.00
2018-09-08T02:27:55.057Z,100.00
2018-09-08T02:30:25.597Z,100.00
2018-09-08T02:32:55.968Z,100.00
2018-09-08T02:35:26.535Z,100.00
2018-09-08T02:37:57.008Z,100.00
2018-09-08T02:40:27.510Z,100.00
2018-09-08T02:42:59.191Z,100.00
2018-09-08T02:45:29.724Z,100.00
2018-09-08T02:48:01.121Z,100.00
2018-09-08T02:50:31.553Z,100.00
2018-09-08T02:52:59.775Z,100.00
2018-09-08T02:55:28.400Z,100.00
2018-09-08T02:57:56.820Z,100.00
2018-09-08T03:00:25.452Z,100.00
2018-09-08T03:02:54.013Z,100.00
2018-09-08T03:05:22.475Z,100.00
2018-09-08T03:07:50.760Z,100.00
2018-09-08T03:10:19.780Z,100.00
2018-09-08T03:12:48.039Z,100.00
2018-09-08T03:15:16.221Z,100.00
2018-09-08T03:17:44.382Z,100.00
2018-09-08T03:20:12.532Z,100.00
2018-09-08T03:22:40.700Z,100.00
2018-09-08T03:25:08.869Z,100.00
2018-09-08T03:27:37.061Z,100.00
2018-09-08T03:30:05.272Z,100.00
2018-09-08T03:32:33.410Z,100.00
2018-09-08T03:35:01.987Z,100.00
2018-09-08T03:37:30.191Z,100.00
2018-09-08T03:39:58.381Z,100.00
2018-09-08T03:42:26.485Z,100.00
2018-09-08T03:44:54.615Z,100.00
2018-09-08T03:47:22.728Z,100.00
2018-09-08T03:49:50.809Z,100.00
2018-09-08T03:52:18.964Z,100.00
2018-09-08T03:54:47.135Z,100.00
2018-09-08T03:57:15.289Z,100.00
2018-09-08T03:59:43.697Z,100.00
2018-09-08T04:02:11.977Z,100.00
2018-09-08T04:04:42.509Z,100.00
2018-09-08T04:07:13.141Z,100.00
2018-09-08T04:09:44.194Z,100.00
2018-09-08T04:12:14.764Z,100.00
2018-09-08T04:14:45.079Z,100.00
2018-09-08T04:17:15.511Z,100.00
2018-09-08T04:19:45.951Z,100.00
2018-09-08T04:22:16.371Z,100.00
2018-09-08T04:24:46.795Z,100.00
2018-09-08T04:27:17.283Z,100.00
2018-09-08T04:29:47.790Z,100.00
2018-09-08T04:32:18.341Z,100.00
2018-09-08T04:34:48.886Z,100.00
2018-09-08T04:37:19.224Z,100.00
2018-09-08T04:39:49.852Z,100.00
2018-09-08T04:42:20.333Z,100.00
2018-09-08T04:44:51.387Z,100.00
2018-09-08T04:47:22.820Z,100.00
2018-09-08T04:49:53.663Z,100.00
2018-09-08T04:52:24.119Z,100.00
2018-09-08T04:54:54.702Z,100.00
2018-09-08T04:57:25.180Z,100.00
2018-09-08T04:59:56.228Z,100.00
2018-09-08T05:02:26.822Z,100.00
2018-09-08T05:04:57.643Z,100.00
2018-09-08T05:07:28.059Z,100.00
2018-09-08T05:09:58.675Z,100.00
2018-09-08T05:12:29.123Z,100.00
2018-09-08T05:14:59.931Z,100.00
2018-09-08T05:17:31.181Z,100.00
2018-09-08T05:20:01.516Z,100.00
2018-09-08T05:22:31.973Z,100.00
2018-09-08T05:25:02.885Z,100.00
2018-09-08T05:27:33.813Z,100.00
2018-09-08T05:30:04.647Z,100.00
2018-09-08T05:32:35.240Z,100.00
2018-09-08T05:35:05.934Z,100.00
2018-09-08T05:37:36.374Z,100.00
2018-09-08T05:40:07.161Z,100.00
2018-09-08T05:42:37.544Z,100.00
2018-09-08T05:45:07.974Z,100.00
2018-09-08T05:47:38.643Z,100.00
2018-09-08T05:50:09.199Z,100.00
2018-09-08T05:52:39.994Z,100.00
2018-09-08T05:55:10.549Z,100.00
2018-09-08T05:57:40.877Z,100.00
2018-09-08T06:00:12.403Z,100.00
2018-09-08T06:02:43.814Z,92.96
2018-09-08T06:05:14.586Z,87.38
2018-09-08T06:07:45.216Z,86.89
2018-09-08T06:10:15.986Z,84.01
2018-09-08T06:12:46.992Z,84.44
2018-09-08T06:15:17.801Z,84.64
2018-09-08T06:17:48.385Z,81.82
2018-09-08T06:20:18.907Z,82.41
2018-09-08T06:22:50.224Z,82.51
2018-09-08T06:25:20.996Z,80.76
2018-09-08T06:27:52.021Z,79.28
2018-09-08T06:30:22.591Z,76.12
2018-09-08T06:32:53.330Z,74.43
2018-09-08T06:35:23.802Z,79.02
2018-09-08T06:37:54.562Z,81.59
2018-09-08T06:40:25.530Z,79.44
2018-09-08T06:42:56.039Z,72.72
2018-09-08T06:45:26.537Z,69.45
2018-09-08T06:47:56.957Z,65.96
2018-09-08T06:50:27.519Z,62.74
2018-09-08T06:52:57.906Z,59.98
2018-09-08T06:55:28.322Z,57.35
2018-09-08T06:57:59.630Z,58.04
2018-09-08T07:00:30.431Z,57.98
2018-09-08T07:03:00.724Z,56.98
2018-09-08T07:05:31.272Z,55.12
2018-09-08T07:08:01.752Z,56.15
2018-09-08T07:10:32.241Z,55.14
2018-09-08T07:13:02.832Z,54.96
2018-09-08T07:15:33.393Z,53.04
2018-09-08T07:18:04.130Z,51.07
2018-09-08T07:20:35.480Z,49.40
2018-09-08T07:23:06.671Z,49.27
2018-09-08T07:25:37.431Z,48.78
2018-09-08T07:28:09.321Z,48.56
2018-09-08T07:30:40.032Z,47.60
2018-09-08T07:33:10.572Z,48.13
2018-09-08T07:35:41.194Z,48.94
2018-09-08T07:38:12.774Z,47.37
2018-09-08T07:40:45.614Z,47.07
2018-09-08T07:43:16.287Z,45.58
2018-09-08T07:45:46.919Z,45.87
2018-09-08T07:48:17.448Z,45.88
2018-09-08T07:50:48.408Z,45.19
2018-09-08T07:53:22.022Z,47.25
2018-09-08T07:55:52.923Z,46.43
2018-09-08T07:58:23.485Z,46.77
2018-09-08T08:00:54.260Z,45.80
2018-09-08T08:03:25.161Z,44.61
2018-09-08T08:05:55.858Z,42.54
2018-09-08T08:08:26.608Z,42.70
2018-09-08T08:10:57.403Z,41.40
2018-09-08T08:13:28.088Z,41.10
2018-09-08T08:15:58.804Z,40.77
2018-09-08T08:18:29.836Z,42.80
2018-09-08T08:21:01.206Z,43.43
2018-09-08T08:23:31.743Z,43.46
2018-09-08T08:26:02.361Z,42.50
2018-09-08T08:28:33.514Z,42.18
2018-09-08T08:31:05.206Z,40.57
2018-09-08T08:33:37.428Z,39.54
2018-09-08T08:36:08.033Z,39.87
2018-09-08T08:38:41.110Z,39.62
2018-09-08T08:41:11.920Z,39.07
2018-09-08T08:43:42.770Z,38.86
2018-09-08T08:46:13.950Z,39.02
2018-09-08T08:48:44.614Z,38.85
2018-09-08T08:51:32.337Z,37.92
2018-09-08T08:54:16.494Z,38.95
2018-09-08T08:56:47.402Z,40.65
2018-09-08T08:59:19.551Z,38.75
2018-09-08T09:01:50.638Z,40.55
2018-09-08T09:04:25.020Z,38.88
2018-09-08T09:06:56.868Z,38.10
2018-09-08T09:09:26.971Z,37.67
2018-09-08T09:11:58.570Z,37.65
2018-09-08T09:14:29.242Z,38.16
2018-09-08T09:16:59.860Z,37.73
2018-09-08T09:19:51.338Z,38.86
2018-09-08T09:22:38.890Z,39.90
2018-09-08T09:25:11.010Z,38.23
2018-09-08T09:27:43.222Z,38.07
2018-09-08T09:30:28.869Z,38.58
2018-09-08T09:33:00.737Z,36.21
2018-09-08T09:35:31.371Z,34.77
2018-09-08T09:38:02.649Z,34.13
2018-09-08T09:40:33.073Z,33.46
2018-09-08T09:43:03.599Z,35.78
2018-09-08T09:45:36.337Z,33.30
2018-09-08T09:48:07.104Z,34.59
2018-09-08T09:50:38.599Z,35.75
2018-09-08T09:53:10.249Z,33.57
2018-09-08T09:55:41.779Z,32.82
2018-09-08T09:58:12.580Z,31.70
2018-09-08T10:01:51.063Z,35.62
2018-09-08T10:04:22.570Z,36.20
2018-09-08T10:06:53.837Z,33.29
2018-09-08T10:09:25.151Z,33.98
2018-09-08T10:11:56.408Z,33.38
2018-09-08T10:14:27.586Z,32.70
2018-09-08T10:16:58.304Z,32.33
2018-09-08T10:19:29.108Z,31.25
2018-09-08T10:21:59.782Z,31.14
2018-09-08T10:24:30.329Z,30.03
2018-09-08T10:27:00.992Z,30.54
2018-09-08T10:29:32.152Z,30.01
2018-09-08T10:32:02.787Z,30.40
2018-09-08T10:34:33.700Z,30.07
2018-09-08T10:37:08.173Z,29.61
2018-09-08T10:39:38.716Z,29.06
2018-09-08T10:42:09.347Z,27.71
2018-09-08T10:44:42.084Z,27.40
2018-09-08T10:47:12.715Z,27.06
2018-09-08T10:49:43.249Z,27.49
2018-09-08T10:52:26.612Z,26.20
2018-09-08T10:54:57.441Z,23.94
2018-09-08T10:57:28.671Z,24.60
2018-09-08T10:59:59.858Z,25.23
2018-09-08T11:02:30.954Z,23.83
2018-09-08T11:05:02.173Z,23.94
2018-09-08T11:07:33.204Z,23.56
2018-09-08T11:10:03.988Z,22.84
2018-09-08T11:12:34.672Z,24.03
2018-09-08T11:15:05.468Z,24.22
2018-09-08T11:17:36.482Z,26.23
2018-09-08T11:20:08.387Z,25.80
2018-09-08T11:22:39.345Z,25.42
2018-09-08T11:25:10.028Z,24.60
2018-09-08T11:27:40.515Z,23.77
2018-09-08T11:30:11.346Z,23.14
2018-09-08T11:32:42.339Z,23.31
2018-09-08T11:35:13.592Z,24.24
2018-09-08T11:37:45.376Z,25.07
2018-09-08T11:40:17.024Z,27.07
2018-09-08T11:42:48.185Z,30.47
2018-09-08T11:45:19.365Z,31.57
2018-09-08T11:47:50.669Z,30.18
2018-09-08T11:50:22.868Z,29.11
2018-09-08T11:52:53.965Z,27.94
2018-09-08T11:55:26.212Z,26.03
2018-09-08T11:57:57.306Z,25.88
2018-09-08T12:00:29.881Z,26.53
2018-09-08T12:03:00.624Z,25.67
2018-09-08T12:05:31.450Z,25.73
2018-09-08T12:08:02.941Z,31.55
2018-09-08T12:10:34.449Z,27.96
2018-09-08T12:13:05.341Z,30.05
2018-09-08T12:15:37.291Z,27.29
2018-09-08T12:18:09.071Z,25.26
2018-09-08T12:20:42.997Z,29.58
2018-09-08T12:23:15.314Z,27.76
2018-09-08T12:25:48.116Z,27.27
2018-09-08T12:28:20.539Z,27.29
2018-09-08T12:30:51.448Z,26.13
2018-09-08T12:33:31.942Z,25.12
2018-09-08T12:36:04.542Z,25.36
2018-09-08T12:38:37.167Z,23.54
2018-09-08T12:41:18.773Z,25.12
2018-09-08T12:43:51.431Z,25.17
2018-09-08T12:46:24.594Z,24.64
2018-09-08T12:48:56.265Z,23.87
2018-09-08T12:51:27.364Z,22.45
2018-09-08T12:53:58.277Z,24.30
2018-09-08T12:56:34.614Z,25.08
2018-09-08T12:59:06.277Z,25.66
2018-09-08T13:01:39.539Z,24.78
2018-09-08T13:04:15.946Z,23.92
2018-09-08T13:06:47.085Z,23.75
2018-09-08T13:09:19.194Z,24.42
2018-09-08T13:11:50.734Z,24.34
2018-09-08T13:14:21.808Z,25.31
2018-09-08T13:16:57.194Z,23.71
2018-09-08T13:19:30.106Z,23.36
2018-09-08T13:22:01.938Z,24.13
2018-09-08T13:24:35.480Z,24.83
2018-09-08T13:27:09.079Z,25.48
2018-09-08T13:29:41.630Z,27.02
2018-09-08T13:32:13.663Z,27.15
2018-09-08T13:34:46.067Z,27.29
2018-09-08T13:37:17.444Z,26.46
2018-09-08T13:39:49.699Z,25.68
2018-09-08T13:42:21.242Z,26.51
2018-09-08T13:44:52.930Z,25.27
2018-09-08T13:47:24.572Z,26.35
2018-09-08T13:49:56.713Z,27.76
2018-09-08T13:52:28.515Z,26.78
2018-09-08T13:55:00.433Z,26.40
2018-09-08T13:57:31.990Z,26.30
2018-09-08T14:00:03.755Z,26.45
2018-09-08T14:02:37.133Z,25.59
2018-09-08T14:05:08.644Z,25.23
2018-09-08T14:07:43.543Z,25.26
2018-09-08T14:10:15.204Z,24.26
2018-09-08T14:12:46.705Z,24.11
2018-09-08T14:15:17.430Z,25.89
2018-09-08T14:17:48.214Z,27.53
2018-09-08T14:20:18.977Z,28.75
2018-09-08T14:22:50.175Z,29.22
2018-09-08T14:25:21.142Z,30.31
2018-09-08T14:27:52.528Z,31.24
2018-09-08T14:30:24.090Z,29.83
2018-09-08T14:32:54.683Z,30.18
2018-09-08T14:35:25.874Z,31.07
2018-09-08T14:37:56.913Z,30.56
2018-09-08T14:40:28.259Z,31.95
2018-09-08T14:42:59.852Z,31.40
2018-09-08T14:45:30.660Z,30.98
2018-09-08T14:48:04.242Z,30.02
2018-09-08T14:50:37.061Z,28.13
2018-09-08T14:53:10.753Z,28.40
2018-09-08T14:55:42.337Z,27.49
2018-09-08T14:58:14.092Z,27.61
2018-09-08T15:00:46.004Z,27.81
2018-09-08T15:03:17.929Z,28.81
2018-09-08T15:05:49.264Z,28.85
2018-09-08T15:08:20.423Z,30.61
2018-09-08T15:10:52.133Z,30.86
2018-09-08T15:13:23.712Z,30.28
2018-09-08T15:15:56.015Z,31.35
2018-09-08T15:18:30.137Z,30.23
2018-09-08T15:21:02.292Z,30.20
2018-09-08T15:23:34.732Z,30.62
2018-09-08T15:26:06.657Z,30.53
2018-09-08T15:28:38.768Z,31.31
2018-09-08T15:31:10.563Z,31.24
2018-09-08T15:33:43.788Z,31.45
2018-09-08T15:36:18.464Z,31.25
2018-09-08T15:38:51.122Z,31.32
2018-09-08T15:41:23.420Z,32.16
2018-09-08T15:43:55.589Z,31.25
2018-09-08T15:46:27.379Z,30.93
2018-09-08T15:48:59.220Z,31.00
2018-09-08T15:51:31.109Z,31.39
2018-09-08T15:54:02.825Z,31.88
2018-09-08T15:56:34.352Z,31.06
2018-09-08T15:59:05.884Z,31.66
2018-09-08T16:01:37.827Z,32.77
2018-09-08T16:04:09.594Z,33.38
2018-09-08T16:06:40.929Z,33.87
2018-09-08T16:09:12.436Z,35.00
2018-09-08T16:11:44.157Z,35.60
2018-09-08T16:14:15.739Z,34.84
2018-09-08T16:16:47.260Z,34.70
2018-09-08T16:19:18.561Z,35.52
2018-09-08T16:21:50.439Z,34.37
2018-09-08T16:24:23.148Z,34.92
2018-09-08T16:26:54.663Z,36.70
2018-09-08T16:29:26.377Z,37.24
2018-09-08T16:31:59.282Z,38.43
2018-09-08T16:34:31.751Z,39.67
2018-09-08T16:37:05.717Z,39.97
2018-09-08T16:39:37.374Z,41.19
2018-09-08T16:42:08.710Z,41.26
2018-09-08T16:44:42.544Z,41.20
2018-09-08T16:47:14.697Z,42.71
2018-09-08T16:49:46.532Z,44.31
2018-09-08T16:52:18.844Z,43.48
2018-09-08T16:54:50.553Z,44.00
2018-09-08T16:57:22.142Z,44.22
2018-09-08T16:59:53.711Z,45.37
2018-09-08T17:02:26.159Z,46.17
2018-09-08T17:04:58.371Z,46.64
2018-09-08T17:07:30.561Z,47.37
2018-09-08T17:10:02.181Z,49.25
2018-09-08T17:12:34.455Z,50.45
2018-09-08T17:15:09.874Z,51.92
2018-09-08T17:17:41.970Z,53.06
2018-09-08T17:20:13.732Z,53.75
2018-09-08T17:22:45.831Z,55.01
2018-09-08T17:25:17.734Z,55.55
2018-09-08T17:27:50.174Z,56.05
2018-09-08T17:30:22.658Z,56.83
2018-09-08T17:32:54.348Z,57.13
2018-09-08T17:35:25.977Z,57.15
2018-09-08T17:37:57.592Z,58.42
2018-09-08T17:40:29.221Z,59.21
2018-09-08T17:43:01.033Z,60.00
2018-09-08T17:45:32.771Z,61.19
2018-09-08T17:48:04.701Z,61.59
2018-09-08T17:50:36.456Z,61.03
2018-09-08T17:53:08.560Z,60.62
2018-09-08T17:55:40.722Z,61.79
2018-09-08T17:58:12.453Z,61.51
2018-09-08T18:00:44.248Z,62.10
2018-09-08T18:03:15.935Z,62.62
2018-09-08T18:05:48.107Z,63.17
2018-09-08T18:08:20.726Z,62.90
2018-09-08T18:10:53.648Z,63.41
2018-09-08T18:13:26.322Z,64.10
2018-09-08T18:15:58.216Z,65.04
2018-09-08T18:18:29.919Z,64.97
2018-09-08T18:21:01.486Z,65.08
2018-09-08T18:23:33.357Z,65.84
2018-09-08T18:26:04.958Z,66.30
2018-09-08T18:28:36.513Z,66.92
2018-09-08T18:31:08.235Z,67.36
2018-09-08T18:33:40.083Z,67.83
2018-09-08T18:36:13.663Z,67.53
2018-09-08T18:38:45.805Z,67.36
2018-09-08T18:41:17.892Z,68.12
2018-09-08T18:43:49.569Z,68.52
2018-09-08T18:46:21.918Z,68.93
2018-09-08T18:48:53.544Z,69.64
2018-09-08T18:51:25.225Z,70.32
2018-09-08T18:53:58.647Z,70.43
2018-09-08T18:56:30.614Z,70.39
2018-09-08T18:59:02.693Z,70.48
2018-09-08T19:01:36.759Z,70.26
2018-09-08T19:04:10.635Z,70.11
2018-09-08T19:06:42.999Z,70.39
2018-09-08T19:09:15.871Z,70.56
2018-09-08T19:11:47.829Z,71.61
2018-09-08T19:14:24.374Z,71.71
2018-09-08T19:16:56.069Z,71.89
2018-09-08T19:19:28.481Z,72.32
2018-09-08T19:22:00.832Z,72.30
2018-09-08T19:24:38.666Z,72.86
2018-09-08T19:27:11.121Z,72.86
2018-09-08T19:29:49.328Z,73.90
2018-09-08T19:32:21.773Z,73.60
2018-09-08T19:34:59.765Z,74.00
2018-09-08T19:37:35.454Z,74.95
2018-09-08T19:40:12.116Z,75.72
2018-09-08T19:42:43.892Z,76.25
2018-09-08T19:45:15.806Z,76.76
2018-09-08T19:47:52.553Z,76.27
2018-09-08T19:50:25.523Z,76.69
2018-09-08T19:53:02.627Z,76.23
2018-09-08T19:55:35.871Z,76.31
2018-09-08T19:58:12.457Z,77.34
2018-09-08T20:00:44.399Z,77.04
2018-09-08T20:03:16.185Z,77.50
2018-09-08T20:05:47.761Z,78.03
2018-09-08T20:08:19.427Z,78.73
2018-09-08T20:10:51.898Z,78.71
2018-09-08T20:13:24.740Z,79.08
2018-09-08T20:15:56.913Z,79.19
2018-09-08T20:18:29.496Z,80.11
2018-09-08T20:21:01.934Z,80.19
2018-09-08T20:23:34.337Z,80.31
2018-09-08T20:26:10.918Z,80.96
2018-09-08T20:28:43.950Z,81.49
2018-09-08T20:31:16.564Z,82.21
2018-09-08T20:33:50.125Z,82.38
2018-09-08T20:36:25.805Z,82.82
2018-09-08T20:38:58.356Z,83.46
2018-09-08T20:41:33.427Z,83.33
2018-09-08T20:44:06.125Z,84.75
2018-09-08T20:46:39.194Z,84.71
2018-09-08T20:49:12.974Z,85.65
2018-09-08T20:51:46.183Z,85.63
2018-09-08T20:54:20.847Z,85.13
2018-09-08T20:57:02.519Z,86.09
2018-09-08T20:59:44.503Z,85.46
2018-09-08T21:02:17.514Z,85.84
2018-09-08T21:04:49.783Z,85.15
2018-09-08T21:07:22.230Z,85.46
2018-09-08T21:09:54.063Z,85.00
2018-09-08T21:12:27.389Z,85.40
2018-09-08T21:15:00.413Z,85.39
2018-09-08T21:17:32.424Z,85.21
2018-09-08T21:20:04.503Z,85.21
2018-09-08T21:22:36.437Z,85.44
2018-09-08T21:25:09.256Z,85.39
2018-09-08T21:27:40.939Z,85.80
2018-09-08T21:30:13.440Z,86.09
2018-09-08T21:32:45.364Z,86.53
2018-09-08T21:35:16.908Z,87.19
2018-09-08T21:37:48.573Z,88.69
2018-09-08T21:40:20.158Z,88.47
2018-09-08T21:42:52.622Z,88.72
2018-09-08T21:45:24.188Z,89.21
2018-09-08T21:47:55.917Z,89.23
2018-09-08T21:50:27.513Z,89.82
2018-09-08T21:52:59.128Z,89.39
2018-09-08T21:55:30.766Z,88.79
2018-09-08T21:58:03.202Z,88.51
2018-09-08T22:00:35.338Z,88.23
2018-09-08T22:03:07.688Z,87.61
2018-09-08T22:05:39.131Z,87.22
2018-09-08T22:08:11.626Z,87.64
2018-09-08T22:10:42.913Z,87.40
2018-09-08T22:13:14.302Z,88.05
2018-09-08T22:15:46.176Z,87.92
2018-09-08T22:18:17.202Z,88.25
2018-09-08T22:20:48.077Z,88.83
2018-09-08T22:23:19.419Z,89.14
2018-09-08T22:25:49.970Z,89.06
2018-09-08T22:28:20.607Z,89.40
2018-09-08T22:30:51.649Z,89.65
2018-09-08T22:33:22.625Z,90.26
2018-09-08T22:35:53.592Z,90.34
2018-09-08T22:38:25.274Z,90.52
2018-09-08T22:40:55.980Z,91.23
2018-09-08T22:43:26.476Z,91.27
2018-09-08T22:45:58.245Z,90.85
2018-09-08T22:48:28.894Z,90.80
2018-09-08T22:50:59.268Z,90.97
2018-09-08T22:53:29.888Z,90.95
2018-09-08T22:56:00.442Z,91.47
2018-09-08T22:58:30.923Z,91.87
2018-09-08T23:01:01.625Z,91.78
2018-09-08T23:03:32.846Z,92.60
2018-09-08T23:06:03.405Z,92.41
2018-09-08T23:08:34.769Z,92.63
2018-09-08T23:11:05.479Z,93.15
2018-09-08T23:13:36.096Z,93.01
2018-09-08T23:16:07.655Z,93.42
2018-09-08T23:18:37.926Z,93.27
2018-09-08T23:21:08.654Z,93.28
2018-09-08T23:23:39.541Z,93.71
2018-09-08T23:26:10.214Z,93.96
2018-09-08T23:28:41.373Z,93.28
2018-09-08T23:31:11.863Z,93.56
2018-09-08T23:33:42.383Z,93.22
2018-09-08T23:36:12.894Z,93.48
2018-09-08T23:38:43.369Z,93.51
2018-09-08T23:41:13.967Z,93.73
2018-09-08T23:43:44.397Z,93.53
2018-09-08T23:46:14.975Z,94.20
2018-09-08T23:48:45.486Z,94.55
2018-09-08T23:51:15.939Z,94.64
2018-09-08T23:53:46.507Z,94.95
2018-09-08T23:56:17.097Z,95.27
2018-09-08T23:58:47.403Z,95.70
